createdAt,value
2019-01-02T00:00:36.697Z,102941.33
2019-01-02T00:04:02.226Z,102943.90
2019-01-02T00:07:27.775Z,102952.11
2019-01-02T00:10:53.324Z,102950.34
2019-01-02T00:14:19.011Z,102952.20
2019-01-02T00:17:44.913Z,102959.73
2019-01-02T00:21:10.823Z,102967.59
2019-01-02T00:24:36.344Z,102959.73
2019-01-02T00:28:02.488Z,102964.41
2019-01-02T00:31:28.096Z,102964.39
2019-01-02T00:34:53.663Z,102968.95
2019-01-02T00:38:19.517Z,102964.29
2019-01-02T00:41:45.195Z,102972.95
2019-01-02T00:45:10.963Z,102970.94
2019-01-02T00:48:36.877Z,102964.34
2019-01-02T00:52:02.422Z,102970.58
2019-01-02T00:55:28.036Z,102967.72
2019-01-02T00:58:53.875Z,102972.95
2019-01-02T01:02:19.452Z,102974.67
2019-01-02T01:05:44.979Z,102979.22
2019-01-02T01:09:10.513Z,102986.80
2019-01-02T01:12:36.077Z,102978.73
2019-01-02T01:16:01.605Z,102971.95
2019-01-02T01:19:27.454Z,102979.43
2019-01-02T01:22:53.009Z,102982.67
2019-01-02T01:26:18.960Z,102990.17
2019-01-02T01:29:44.879Z,102993.06
2019-01-02T01:33:10.439Z,102993.48
2019-01-02T01:36:35.974Z,102985.94
2019-01-02T01:40:01.895Z,102987.75
2019-01-02T01:43:28.140Z,102991.87
2019-01-02T01:46:53.661Z,102992.36
2019-01-02T01:50:19.496Z,102994.52
2019-01-02T01:53:45.050Z,102997.34
2019-01-02T01:57:10.904Z,102995.00
2019-01-02T02:00:37.028Z,102996.86
2019-01-02T02:04:02.555Z,102999.04
2019-01-02T02:07:28.404Z,103015.87
2019-01-02T02:10:54.221Z,103009.99
2019-01-02T02:14:19.799Z,103001.81
2019-01-02T02:17:45.412Z,103022.27
2019-01-02T02:21:11.227Z,103031.28
2019-01-02T02:24:36.794Z,103024.88
2019-01-02T02:28:02.897Z,103025.47
2019-01-02T02:31:28.418Z,103035.84
2019-01-02T02:34:54.291Z,103030.67
2019-01-02T02:38:19.853Z,103035.28
2019-01-02T02:41:45.845Z,103034.14
2019-01-02T02:45:12.775Z,103030.80
2019-01-02T02:48:39.015Z,103035.66
2019-01-02T02:52:04.903Z,103032.28
2019-01-02T02:55:30.470Z,103026.58
2019-01-02T02:58:56.798Z,103027.86
2019-01-02T03:02:22.751Z,103021.45
2019-01-02T03:05:48.308Z,103018.44
2019-01-02T03:09:13.862Z,103016.83
2019-01-02T03:12:39.408Z,103017.49
2019-01-02T03:16:05.231Z,103027.59
2019-01-02T03:19:31.381Z,103028.67
2019-01-02T03:22:57.362Z,103029.91
2019-01-02T03:26:23.469Z,103041.78
2019-01-02T03:29:49.049Z,103040.31
2019-01-02T03:33:14.607Z,103044.02
2019-01-02T03:36:40.127Z,103041.25
2019-01-02T03:40:06.394Z,103038.77
2019-01-02T03:43:31.920Z,103046.02
2019-01-02T03:46:57.492Z,103046.30
2019-01-02T03:50:23.089Z,103048.59
2019-01-02T03:53:48.648Z,103049.73
2019-01-02T03:57:14.231Z,103045.62
2019-01-02T04:00:39.792Z,103046.20
2019-01-02T04:04:05.414Z,103053.25
2019-01-02T04:07:31.242Z,103055.95
2019-01-02T04:10:57.059Z,103063.39
2019-01-02T04:14:22.593Z,103058.23
2019-01-02T04:17:48.461Z,103062.91
2019-01-02T04:21:14.293Z,103055.91
2019-01-02T04:24:39.863Z,103053.30
2019-01-02T04:28:05.403Z,103052.81
2019-01-02T04:31:30.949Z,103045.01
2019-01-02T04:34:56.613Z,103056.47
2019-01-02T04:38:22.154Z,103059.75
2019-01-02T04:41:47.703Z,103066.48
2019-01-02T04:45:13.308Z,103063.78
2019-01-02T04:48:38.834Z,103052.05
2019-01-02T04:52:04.373Z,103058.95
2019-01-02T04:55:30.163Z,103062.30
2019-01-02T04:58:56.051Z,103061.04
2019-01-02T05:02:21.608Z,103062.52
2019-01-02T05:05:47.145Z,103068.62
2019-01-02T05:09:12.694Z,103068.84
2019-01-02T05:12:38.246Z,103067.61
2019-01-02T05:16:04.041Z,103072.41
2019-01-02T05:19:29.585Z,103083.33
2019-01-02T05:22:55.103Z,103079.49
2019-01-02T05:26:20.767Z,103080.67
2019-01-02T05:29:46.310Z,103089.27
2019-01-02T05:33:11.830Z,103089.58
2019-01-02T05:36:37.361Z,103091.08
2019-01-02T05:40:02.920Z,103100.24
2019-01-02T05:43:28.454Z,103103.59
2019-01-02T05:46:54.003Z,103101.22
2019-01-02T05:50:19.563Z,103098.05
2019-01-02T05:53:45.148Z,103104.35
2019-01-02T05:57:10.722Z,103104.45
2019-01-02T06:00:39.789Z,103101.53
2019-01-02T06:04:03.852Z,103112.30
2019-01-02T06:07:29.374Z,103106.20
2019-01-02T06:10:54.942Z,103110.73
2019-01-02T06:14:20.729Z,103112.83
2019-01-02T06:17:46.318Z,103120.10
2019-01-02T06:21:11.867Z,103121.97
2019-01-02T06:24:37.377Z,103129.13
2019-01-02T06:28:02.962Z,103126.97
2019-01-02T06:31:28.485Z,103127.05
2019-01-02T06:34:54.034Z,103141.00
2019-01-02T06:38:19.563Z,103140.95
2019-01-02T06:41:45.141Z,103148.50
2019-01-02T06:45:13.854Z,103140.82
2019-01-02T06:48:39.400Z,103148.67
2019-01-02T06:52:04.949Z,103152.50
2019-01-02T06:55:30.623Z,103153.42
2019-01-02T06:58:56.176Z,103151.35
2019-01-02T07:02:21.706Z,103152.43
2019-01-02T07:05:47.289Z,103168.14
2019-01-02T07:09:12.832Z,103164.80
2019-01-02T07:12:38.379Z,103178.76
2019-01-02T07:16:04.180Z,103182.59
2019-01-02T07:19:29.714Z,103183.78
2019-01-02T07:22:55.223Z,103185.71
2019-01-02T07:26:21.166Z,103183.18
2019-01-02T07:29:46.676Z,103197.47
2019-01-02T07:33:12.232Z,103194.45
2019-01-02T07:37:32.874Z,103205.67
2019-01-02T07:41:52.654Z,103217.71
2019-01-02T07:46:26.797Z,103228.06
2019-01-02T07:51:00.221Z,103228.11
2019-01-02T07:55:32.825Z,103235.73
2019-01-02T08:00:02.359Z,103234.05
2019-01-02T08:04:42.511Z,103230.66
2019-01-02T08:09:07.264Z,103234.55
2019-01-02T08:13:27.273Z,103249.19
2019-01-02T08:17:54.457Z,103242.44
2019-01-02T08:22:21.849Z,103258.11
2019-01-02T08:26:45.391Z,103254.11
2019-01-02T08:31:05.812Z,103261.71
2019-01-02T08:36:10.581Z,103269.22
2019-01-02T08:40:15.246Z,103249.06
2019-01-02T08:44:52.198Z,103257.66
2019-01-02T08:49:05.083Z,103262.90
2019-01-02T08:53:30.236Z,103270.79
2019-01-02T08:58:05.458Z,103275.02
2019-01-02T09:02:40.925Z,103286.94
2019-01-02T09:07:11.821Z,103287.12
2019-01-02T09:11:56.125Z,103289.71
2019-01-02T09:16:39.730Z,103286.05
2019-01-02T09:20:51.506Z,103300.69
2019-01-02T09:25:17.247Z,103297.84
2019-01-02T09:29:45.920Z,103306.83
2019-01-02T09:34:16.785Z,103306.63
2019-01-02T09:38:47.066Z,103314.53
2019-01-02T09:43:03.477Z,103321.48
2019-01-02T09:47:17.419Z,103318.23
2019-01-02T09:51:38.549Z,103328.95
2019-01-02T09:55:56.911Z,103318.67
2019-01-02T10:00:23.517Z,103325.50
2019-01-02T10:04:37.990Z,103329.78
2019-01-02T10:09:08.337Z,103332.26
2019-01-02T10:13:34.846Z,103328.54
2019-01-02T10:18:06.936Z,103331.01
2019-01-02T10:22:16.893Z,103334.59
2019-01-02T10:26:15.309Z,103322.61
2019-01-02T10:30:57.361Z,103319.96
2019-01-02T10:35:16.427Z,103327.08
2019-01-02T10:39:27.275Z,103332.44
2019-01-02T10:43:33.461Z,103323.45
2019-01-02T10:47:17.225Z,103332.45
2019-01-02T10:51:35.732Z,103321.64
2019-01-02T10:56:03.784Z,103331.67
2019-01-02T11:00:49.073Z,103323.39
2019-01-02T11:04:45.332Z,103334.20
2019-01-02T11:09:13.822Z,103331.05
2019-01-02T11:13:50.000Z,103335.92
2019-01-02T11:18:09.559Z,103340.36
2019-01-02T11:22:27.471Z,103339.94
2019-01-02T11:27:13.961Z,103334.11
2019-01-02T11:31:44.219Z,103336.73
2019-01-02T11:36:39.941Z,103330.28
2019-01-02T11:40:55.548Z,103323.67
2019-01-02T11:45:08.831Z,103322.55
2019-01-02T11:48:34.393Z,103317.84
2019-01-02T11:51:59.925Z,103321.53
2019-01-02T11:55:25.470Z,103325.27
2019-01-02T11:58:51.038Z,103315.04
2019-01-02T12:02:16.860Z,103318.17
2019-01-02T12:05:42.433Z,103319.02
2019-01-02T12:09:10.591Z,103314.23
2019-01-02T12:12:36.129Z,103318.51
2019-01-02T12:16:01.700Z,103319.47
2019-01-02T12:19:27.571Z,103313.66
2019-01-02T12:22:53.129Z,103307.07
2019-01-02T12:26:18.743Z,103313.97
2019-01-02T12:29:47.477Z,103319.68
2019-01-02T12:33:13.023Z,103311.29
2019-01-02T12:36:38.574Z,103314.36
2019-01-02T12:40:04.171Z,103324.61
2019-01-02T12:43:29.731Z,103321.53
2019-01-02T12:46:55.307Z,103325.27
2019-01-02T12:50:20.899Z,103322.19
2019-01-02T12:53:53.250Z,103313.98
2019-01-02T12:57:18.823Z,103319.99
2019-01-02T13:00:59.800Z,103329.46
2019-01-02T13:05:03.303Z,103337.19
2019-01-02T13:09:32.060Z,103331.69
2019-01-02T13:13:30.501Z,103326.30
2019-01-02T13:21:59.326Z,103331.08
2019-01-02T13:26:18.846Z,103336.86
2019-01-02T13:30:44.162Z,103336.84
2019-01-02T13:35:09.042Z,103327.70
2019-01-02T13:38:50.854Z,103332.95
2019-01-02T13:43:16.893Z,103346.03
2019-01-02T13:47:43.842Z,103355.64
2019-01-02T13:51:16.054Z,103349.05
2019-01-02T13:54:41.783Z,103359.30
2019-01-02T13:58:07.404Z,103366.70
2019-01-02T14:01:33.779Z,103369.58
2019-01-02T14:04:59.703Z,103381.58
2019-01-02T14:08:25.286Z,103383.77
2019-01-02T14:11:50.803Z,103394.75
2019-01-02T14:15:16.384Z,103392.05
2019-01-02T14:18:41.977Z,103395.39
2019-01-02T14:22:07.568Z,103393.44
2019-01-02T14:25:33.111Z,103392.16
2019-01-02T14:28:58.675Z,103397.89
2019-01-02T14:32:24.201Z,103406.23
2019-01-02T14:35:49.755Z,103400.73
2019-01-02T14:39:15.575Z,103404.01
2019-01-02T14:42:41.140Z,103401.55
2019-01-02T14:46:06.713Z,103401.80
2019-01-02T14:49:32.351Z,103406.48
2019-01-02T14:52:58.144Z,103408.07
2019-01-02T14:56:23.966Z,103415.78
2019-01-02T14:59:49.510Z,103415.98
2019-01-02T15:03:15.355Z,103419.05
2019-01-02T15:06:40.907Z,103417.76
2019-01-02T15:10:10.649Z,103419.23
2019-01-02T15:13:36.451Z,103423.23
2019-01-02T15:17:01.989Z,103427.55
2019-01-02T15:20:27.822Z,103422.70
2019-01-02T15:23:53.362Z,103430.58
2019-01-02T15:27:19.502Z,103430.83
2019-01-02T15:30:45.033Z,103442.81
2019-01-02T15:34:10.591Z,103442.39
2019-01-02T15:37:36.184Z,103442.73
2019-01-02T15:41:03.012Z,103446.03
2019-01-02T15:44:28.583Z,103445.30
2019-01-02T15:47:54.169Z,103456.06
2019-01-02T15:51:19.774Z,103458.25
2019-01-02T15:54:45.752Z,103456.66
2019-01-02T15:58:11.514Z,103464.80
2019-01-02T16:01:37.101Z,103471.61
2019-01-02T16:05:02.924Z,103466.00
2019-01-02T16:08:28.977Z,103468.88
2019-01-02T16:11:54.607Z,103478.23
2019-01-02T16:15:20.153Z,103484.69
2019-01-02T16:18:45.694Z,103483.78
2019-01-02T16:22:11.253Z,103492.44
2019-01-02T16:25:36.830Z,103487.69
2019-01-02T16:29:02.371Z,103484.69
2019-01-02T16:32:27.969Z,103490.14
2019-01-02T16:35:53.532Z,103505.77
2019-01-02T16:39:19.101Z,103507.55
2019-01-02T16:42:44.671Z,103508.02
2019-01-02T16:46:10.509Z,103508.08
2019-01-02T16:49:36.076Z,103512.14
2019-01-02T16:53:02.505Z,103511.77
2019-01-02T16:56:28.087Z,103515.41
2019-01-02T16:59:53.634Z,103515.88
2019-01-02T17:03:19.448Z,103518.09
2019-01-02T17:06:44.972Z,103522.14
2019-01-02T17:10:12.439Z,103522.18
2019-01-02T17:13:38.012Z,103516.38
2019-01-02T17:17:03.657Z,103518.16
2019-01-02T17:20:29.321Z,103519.05
2019-01-02T17:23:54.897Z,103519.53
2019-01-02T17:27:20.451Z,103532.02
2019-01-02T17:30:46.015Z,103536.48
2019-01-02T17:34:12.254Z,103526.23
2019-01-02T17:37:38.466Z,103530.68
2019-01-02T17:41:04.087Z,103539.14
2019-01-02T17:44:29.979Z,103537.83
2019-01-02T17:47:55.605Z,103535.16
2019-01-02T17:51:21.191Z,103534.70
2019-01-02T17:54:46.741Z,103540.48
2019-01-02T17:58:12.297Z,103532.91
2019-01-02T18:01:38.196Z,103549.40
2019-01-02T18:05:04.001Z,103550.29
2019-01-02T18:08:29.578Z,103541.84
2019-01-02T18:11:55.208Z,103552.05
2019-01-02T18:15:21.292Z,103544.47
2019-01-02T18:18:46.876Z,103564.94
2019-01-02T18:22:13.808Z,103570.27
2019-01-02T18:25:39.480Z,103569.83
2019-01-02T18:29:05.502Z,103567.14
2019-01-02T18:32:31.190Z,103577.33
2019-01-02T18:35:56.766Z,103583.11
2019-01-02T18:39:22.337Z,103575.52
2019-01-02T18:42:47.906Z,103575.55
2019-01-02T18:46:13.495Z,103577.66
2019-01-02T18:49:39.566Z,103586.06
2019-01-02T18:53:05.148Z,103589.63
2019-01-02T18:56:31.348Z,103588.25
2019-01-02T18:59:56.907Z,103587.36
2019-01-02T19:03:22.751Z,103589.58
2019-01-02T19:06:48.377Z,103589.08
2019-01-02T19:10:13.958Z,103597.91
2019-01-02T19:13:42.671Z,103600.97
2019-01-02T19:17:08.368Z,103597.36
2019-01-02T19:20:34.258Z,103603.55
2019-01-02T19:23:59.933Z,103606.17
2019-01-02T19:27:25.759Z,103603.89
2019-01-02T19:30:51.356Z,103603.13
2019-01-02T19:34:16.867Z,103610.03
2019-01-02T19:37:42.665Z,103609.58
2019-01-02T19:41:08.278Z,103608.23
2019-01-02T19:44:33.846Z,103613.14
2019-01-02T19:47:59.519Z,103612.39
2019-01-02T19:51:25.242Z,103614.19
2019-01-02T19:54:50.845Z,103623.64
2019-01-02T19:58:16.580Z,103619.33
2019-01-02T20:01:42.173Z,103610.38
2019-01-02T20:05:08.032Z,103606.81
2019-01-02T20:08:33.747Z,103610.42
2019-01-02T20:11:59.441Z,103612.60
2019-01-02T20:15:25.317Z,103606.41
2019-01-02T20:18:51.068Z,103609.10
2019-01-02T20:22:16.634Z,103608.27
2019-01-02T20:25:42.188Z,103608.27
2019-01-02T20:29:08.130Z,103599.81
2019-01-02T20:32:34.191Z,103607.81
2019-01-02T20:35:59.820Z,103601.59
2019-01-02T20:39:25.493Z,103610.05
2019-01-02T20:42:51.304Z,103605.08
2019-01-02T20:46:17.187Z,103605.09
2019-01-02T20:49:43.061Z,103601.63
2019-01-02T20:53:08.657Z,103593.52
2019-01-02T20:56:34.790Z,103593.58
2019-01-02T21:00:00.809Z,103597.92
2019-01-02T21:03:26.414Z,103586.40
2019-01-02T21:06:52.052Z,103594.61
2019-01-02T21:10:17.824Z,103585.17
2019-01-02T21:13:43.741Z,103588.74
2019-01-02T21:17:09.433Z,103589.13
2019-01-02T21:20:35.391Z,103588.73
2019-01-02T21:24:00.976Z,103586.78
2019-01-02T21:27:26.727Z,103578.66
2019-01-02T21:30:52.281Z,103577.22
2019-01-02T21:34:17.880Z,103582.09
2019-01-02T21:37:43.637Z,103583.36
2019-01-02T21:41:09.367Z,103583.20
2019-01-02T21:44:35.264Z,103578.23
2019-01-02T21:48:01.122Z,103579.44
2019-01-02T21:51:26.727Z,103581.15
2019-01-02T21:54:52.346Z,103575.30
2019-01-02T21:58:17.969Z,103570.81
2019-01-02T22:01:43.811Z,103574.91
2019-01-02T22:05:12.579Z,103565.75
2019-01-02T22:12:15.386Z,103569.65
2019-01-02T22:15:47.603Z,103570.62
2019-01-02T22:19:13.359Z,103575.86
2019-01-02T22:22:38.962Z,103580.23
2019-01-02T22:26:04.533Z,103576.67
2019-01-02T22:29:30.450Z,103577.55
2019-01-02T22:32:56.064Z,103577.38
2019-01-02T22:36:21.685Z,103578.26
2019-01-02T22:39:47.784Z,103580.50
2019-01-02T22:43:13.349Z,103576.63
2019-01-02T22:46:38.966Z,103592.34
2019-01-02T22:50:05.459Z,103586.94
2019-01-02T22:53:31.028Z,103589.23
2019-01-02T22:56:56.637Z,103582.64
2019-01-02T23:00:41.321Z,103586.24
2019-01-02T23:04:23.048Z,103584.51
2019-01-02T23:08:13.734Z,103581.42
2019-01-02T23:12:01.183Z,103587.34
2019-01-02T23:15:54.548Z,103587.79
2019-01-02T23:19:47.710Z,103587.00
2019-01-02T23:23:34.977Z,103590.98
2019-01-02T23:27:34.526Z,103586.59
2019-01-02T23:31:25.097Z,103594.23
2019-01-02T23:35:18.346Z,103594.28
2019-01-02T23:39:17.742Z,103586.66
2019-01-02T23:43:00.660Z,103589.34
2019-01-02T23:46:45.138Z,103587.17
2019-01-02T23:50:35.085Z,103583.63
2019-01-02T23:54:19.494Z,103594.48
2019-01-02T23:58:07.216Z,103591.34
